Tiempo atmosférico en la estación meteorológica de Capdepera, Illes Balears (57 m.)



Fecha
DESCASC
Temp. máxima en grados centígrados (hora)
DESCASC
Temp. mínima en grados centígrados (hora)
DESCASC
Temp. media en grados centígrados
DESCASC
Racha de viento máxima en m/sg (hora)
DESCASC
Velocidad máxima media en intervalos de 10 minutos(hora)
DESCASC
Precipitaciones diarias en mm
DESCASC
Precipitaciones de 00:00 a 06:00 en mm
DESCASC
Precipitaciones de 06:00 a 12:00 en mm
DESCASC
Precipitaciones de 12:00 a 18:00 en mm
DESCASC
Precipitaciones de 18:00 a 24:00 en mm
DESCASC
19-01-2020 13.3 (05:30) 9.6 (19:20) 11.5 30.56 (21:20) 23.61 (17:20) 67.1 0.2 2.5 25.3 39.1
18-01-2020 16 (14:00) 11.5 (07:40) 13.8 8.06 (16:10) 5 (14:20) 0 0 0 0 0
17-01-2020 19.7 (15:20) 11.7 (04:50) 15.7 13.89 (22:00) 11.39 (22:10) 0 0 0 0 0
16-01-2020 18.4 (12:40) 11.3 (00:00) 14.8 5 (11:20) 4.17 (16:50) 0 0 0 0 0
15-01-2020 17.3 (13:50) 10.9 (00:00) 14.1 11.11 (11:30) 5 (13:00) 0 0 0 0 0
14-01-2020 15.5 (12:00) 11 (00:00) 13.3 14.44 (13:30) 8.33 (12:40) 0 0 0 0 0
13-01-2020 18 (13:30) 9.3 (00:00) 13.7 5.56 (12:40) 3.61 (16:20) 0 0 0 0 0
12-01-2020 14.4 (13:00) 11 (00:00) 12.7 12.5 (04:00) 10 (13:40) 0 0 0 0 0
11-01-2020 13.9 (12:40) 11.7 (00:00) 12.8 18.33 (04:30) 15 (00:20) 0 0 0 0 0
10-01-2020 14 (11:40) 11.5 (00:00) 12.8 18.61 (18:30) 15.56 (18:30) 0.3 0 0 0 0.3
09-01-2020 18 (14:30) 12.3 (00:00) 15.2 6.11 (05:50) 5.28 (13:40) 0 0 0 0 0
08-01-2020 16.7 (13:50) 11.8 (00:00) 14.3 15 (09:10) 11.11 (09:10) 0 0 0 0 0
07-01-2020 17.1 (12:30) 11.7 (00:00) 14.4 8.33 (16:20) 6.67 (16:20) 0 0 0 0 0
06-01-2020 13.7 (14:00) 11.7 (00:00) 12.7 8.33 (00:10) 5 (00:10) 0 0 0 0 0
05-01-2020 18.6 (13:40) 11 (00:00) 14.8 10 (21:00) 8.06 (23:00) 0 0 0 0 0
04-01-2020 18.2 (13:20) 11.6 (00:00) 14.9 9.17 (00:20) 6.94 (13:30) 0 0 0 0 0
03-01-2020 15.5 (14:20) 12.3 (00:00) 13.9 7.5 (23:59) 4.44 (23:59) 0 0 0 0 0
02-01-2020 18.4 (14:20) 12 (00:00) 15.2 6.67 (16:10) 3.89 (15:40) 0 0 0 0 0
01-01-2020 16.9 (11:40) 11 (00:00) 13.9 4.72 (04:20) 3.89 (04:30) 0 0 0 0 0
31-12-2019 17.6 (13:30) 11.4 (00:00) 14.5 6.39 (04:50) 5 (03:30) 0 0 0 0 0
30-12-2019 17.4 (11:20) 11.9 (00:00) 14.6 5.28 (00:20) 4.44 (00:20) 0 0 0 0 0
29-12-2019 15.2 (10:30) 11.9 (00:00) 13.5 8.33 (00:10) 6.67 (15:40) 0 0 0 0 0
28-12-2019 17 (14:10) 13.1 (00:00) 15.1 11.39 (03:30) 9.72 (14:30) 0 0 0 0 0
27-12-2019 18.8 (11:40) 13.4 (00:00) 16.1 11.67 (00:10) 10 (00:10) 0 0 0 0 0
26-12-2019 17.7 (10:30) 12.9 (00:00) 15.3 13.61 (13:30) 11.39 (23:30) 0 0 0 0 0
25-12-2019 20.5 (13:10) 13.2 (00:00) 16.8 5.56 (00:50) 4.72 (01:10) 0 0 0 0 0
24-12-2019 21 (13:10) 13.6 (00:00) 17.3 6.94 (08:50) 4.17 (23:40) 0 0 0 0 0
23-12-2019 17.9 (15:40) 13.8 (00:00) 15.8 17.5 (00:50) 8.06 (13:10) 0 0 0 0 0

Gráficas

Temp. máximas Temp. mínimas Temp. medias Precipitaciones Rachas de viento máximas Velocidades máximas media en intervalos de 10 minutos

Datos horarios

Fecha y hora oficial Temperatura (ºC) Velocidad del viento (km/h) Dirección del viento Racha (km/h) Dirección de racha Precipitación (mm) Presión (hPa) Tendencia (hPa) Humedad (%)
2020-01-21 23:00:00 14.7 28 Sudeste 37 Sudeste 0 -- -- 93
2020-01-21 22:00:00 14.8 29 Sudeste 43 Sudeste 0 -- -- 93
2020-01-21 21:00:00 14.8 34 Sudeste 49 Sudeste 0 -- -- 91
2020-01-21 20:00:00 14.8 42 Sudeste 56 Sudeste 0 -- -- 90
2020-01-21 19:00:00 14.8 51 Sudeste 64 Sudeste 0 -- -- 90
2020-01-21 18:00:00 14.6 51 Sudeste 76 Sudeste 0 -- -- 91
2020-01-21 17:00:00 14.1 58 Sudeste 87 Sudeste 0.7 -- -- 95
2020-01-21 16:00:00 14.1 58 Sudeste 79 Sudeste 0.9 -- -- 93
2020-01-21 15:00:00 14.3 59 Sudeste 75 Sudeste 0 -- -- 87
2020-01-21 14:00:00 14.7 66 Sudeste 84 Sudeste 0 -- -- 82
2020-01-21 13:00:00 15 64 Sudeste 87 Este 0.1 -- -- 81
2020-01-21 12:00:00 15 67 Sudeste 91 Sudeste 0 -- -- 80
2020-01-21 11:00:00 15 64 Sudeste 81 Sudeste 0 -- -- 81
2020-01-21 10:00:00 15 59 Sudeste 76 Sudeste 0 -- -- 81
2020-01-21 09:00:00 14.9 57 Este 74 Este 0 -- -- 81
2020-01-21 08:00:00 14.8 54 Este 68 Este 0 -- -- 83
2020-01-21 07:00:00 14.7 53 Este 64 Este 0 -- -- 84
2020-01-21 06:00:00 14.7 52 Este 67 Este 0 -- -- 84
2020-01-21 05:00:00 14.6 57 Sudeste 72 Sudeste 0 -- -- 82
2020-01-21 04:00:00 14.7 55 Sudeste 68 Este 0 -- -- 81
2020-01-21 03:00:00 14.8 54 Este 69 Este 0 -- -- 83
2020-01-21 02:00:00 14.7 57 Este 71 Este 0 -- -- 84
2020-01-21 01:00:00 14.8 53 Este 72 Este 0.1 -- -- 87
2020-01-21 00:00:00 14.8 51 Este 61 Este 0 -- -- 87
2020-01-20 23:00:00 14.5 39 Este 50 Sudeste 0 -- -- 81
2020-01-20 22:00:00 14.3 35 Este 47 Este 0 -- -- 91
2020-01-20 21:00:00 13.7 41 Este 59 Este 0 -- -- 90
2020-01-20 20:00:00 14.1 36 Sudeste 53 Sudeste 0 -- -- 85
2020-01-20 19:00:00 13.6 31 Este 40 Sudeste 0 -- -- 78
2020-01-20 18:00:00 13.3 28 Sudeste 39 Sudeste 0 -- -- 88
2020-01-20 17:00:00 12.6 31 Sudeste 43 Sudeste 0 -- -- 89
2020-01-20 16:00:00 12.9 37 Sudeste 47 Sudeste 0 -- -- 90
2020-01-20 15:00:00 12.4 27 Sudeste 48 Nordeste 1.7 -- -- 98
2020-01-20 14:00:00 11.8 48 Nordeste 72 Nordeste 0.9 -- -- 99
2020-01-20 13:00:00 12.9 54 Este 71 Este 0 -- -- 90
2020-01-20 12:00:00 12.8 59 Este 76 Este 0.1 -- -- 89
2020-01-20 11:00:00 12.4 61 Este 76 Este 2 -- -- 99
2020-01-20 10:00:00 11.6 62 Nordeste 80 Nordeste 0.6 -- -- 95
2020-01-20 09:00:00 11.9 62 Nordeste 76 Nordeste 0.2 -- -- 90
2020-01-20 08:00:00 11.7 62 Nordeste 82 Este 1.2 -- -- 87
2020-01-20 07:00:00 11.6 62 Este 75 Nordeste 1.9 -- -- 95
2020-01-20 06:00:00 10.7 60 Nordeste 76 Nordeste 2.5 -- -- 99
2020-01-20 05:00:00 11 58 Nordeste 85 Este 2 -- -- 99
2020-01-20 04:00:00 11.3 66 Nordeste 100 Nordeste 3 -- -- 97
2020-01-20 03:00:00 10.8 67 Nordeste 84 Nordeste 2.4 -- -- 99
2020-01-20 02:00:00 10.9 53 Nordeste 77 Nordeste 2 -- -- 99
2020-01-20 01:00:00 10.9 55 Nordeste 72 Nordeste 1.7 -- -- 98
2020-01-20 00:00:00 11 55 Nordeste 72 Norte 1.6 -- -- 99
2020-01-19 23:00:00 10.9 54 Nordeste 62 Nordeste 1.6 -- -- 99
2020-01-19 22:00:00 10.7 60 Nordeste 110 Nordeste 9.4 -- -- 99
2020-01-19 21:00:00 10.9 77 Nordeste 101 Nordeste 8.8 -- -- 98
2020-01-19 20:00:00 10 75 Nordeste 98 Nordeste 6.4 -- -- 99
2020-01-19 19:00:00 10.1 79 Nordeste 107 Nordeste 11.3 -- -- 99
2020-01-19 18:00:00 10 77 Nordeste 103 Nordeste 10.9 -- -- 99
2020-01-19 17:00:00 10.7 79 Nordeste 102 Nordeste 5.9 -- -- 99
2020-01-19 16:00:00 11.4 70 Nordeste 90 Nordeste 4.1 -- -- 99
2020-01-19 15:00:00 11.5 60 Nordeste 79 Nordeste 4.2 -- -- 99
2020-01-19 14:00:00 12.2 45 Nordeste 51 Nordeste 0.1 -- -- 99
2020-01-19 13:00:00 12.4 41 Nordeste 46 Nordeste 0.1 -- -- 99
2020-01-19 12:00:00 12.6 32 Nordeste 42 Nordeste 0.1 -- -- 99
2020-01-19 11:00:00 12.1 28 Nordeste 34 Este 0.4 -- -- 96
2020-01-19 10:00:00 12.9 25 Este 36 Este 0.9 -- -- 95
2020-01-19 09:00:00 13.1 24 Este 28 Este 0 -- -- 95
2020-01-19 08:00:00 12.6 20 Este 24 Este 0.1 -- -- 95
2020-01-19 07:00:00 13.1 8 Sudeste 34 Sudeste 1 -- -- 95
2020-01-19 06:00:00 12.9 3 Nordeste 4 Nordeste 0.2 -- -- 92
2020-01-19 05:00:00 13.1 3 Sur 6 Sur 0 -- -- 89
2020-01-19 04:00:00 12.9 5 Sudoeste 9 Sudoeste 0 -- -- 89
2020-01-19 03:00:00 12.8 4 Sudoeste 17 Sudoeste 0 -- -- 90
2020-01-19 02:00:00 12.6 8 Sudoeste 16 Sudoeste 0 -- -- 92
2020-01-19 01:00:00 12.6 4 Sudoeste 13 Sudoeste 0 -- -- 90
2020-01-19 00:00:00 12.3 3 Sudoeste 13 Sudoeste 0 -- -- 90
2020-01-18 23:00:00 12 0 Calma 12 Sudoeste 0 -- -- 89
2020-01-18 22:00:00 12 0 Calma 15 Sudoeste 0 -- -- 85
2020-01-18 21:00:00 12.1 0 Calma 9 Sudeste 0 -- -- 80
2020-01-18 20:00:00 12.6 5 Sur 16 Sudoeste 0 -- -- 75
2020-01-18 19:00:00 12.4 3 Sudoeste 13 Sur 0 -- -- 73
2020-01-18 18:00:00 13.7 3 Sudoeste 18 Sur 0 -- -- 84
2020-01-18 17:00:00 14.8 5 Sudoeste 29 Sur 0 -- -- 80
2020-01-18 16:00:00 14.9 17 Sudoeste 28 Sudoeste 0 -- -- 78
2020-01-18 15:00:00 14.8 16 Sur 28 Sur 0 -- -- 77
2020-01-18 14:00:00 15.5 13 Sur 22 Sudoeste 0 -- -- 78
2020-01-18 13:00:00 14.8 8 Sudoeste 26 Sudoeste 0 -- -- 77
2020-01-18 12:00:00 14.9 5 Sudoeste 18 Oeste 0 -- -- 76
2020-01-18 11:00:00 13.8 3 Sudoeste 11 Sudoeste 0 -- -- 81
2020-01-18 10:00:00 12.6 2 Sudoeste 11 Sudoeste 0 -- -- 83
2020-01-18 09:00:00 12.1 0 Calma 10 Sudoeste 0 -- -- 84
2020-01-18 08:00:00 11.7 0 Calma 13 Sur 0 -- -- 86
2020-01-18 07:00:00 11.7 5 Sudoeste 15 Sur 0 -- -- 83
2020-01-18 06:00:00 12 6 Sur 10 Sur 0 -- -- 80
2020-01-18 05:00:00 11.8 5 Sudoeste 11 Sur 0 -- -- 79
2020-01-18 04:00:00 12.2 5 Sur 14 Sur 0 -- -- 77
2020-01-18 03:00:00 12.4 5 Sudeste 15 Este 0 -- -- 76
2020-01-18 02:00:00 12.5 9 Este 16 Sudeste 0 -- -- 77
2020-01-18 01:00:00 12.5 11 Este 22 Este 0 -- -- 77
2020-01-18 00:00:00 12.7 15 Este 30 Nordeste 0 -- -- 77
2020-01-17 23:00:00 12.5 28 Nordeste 50 Nordeste 0 -- -- 79
2020-01-17 22:00:00 13.5 39 Nordeste 50 Nordeste 0 -- -- 78
2020-01-17 21:00:00 14.5 10 Oeste 21 Oeste 0 -- -- 50
2020-01-17 20:00:00 15 9 Oeste 24 Oeste 0 -- -- 50
2020-01-17 19:00:00 15.3 10 Noroeste 30 Norte 0 -- -- 50
2020-01-17 18:00:00 15.4 7 Noroeste 29 Noroeste 0 -- -- 49
2020-01-17 17:00:00 16.5 10 Norte 23 Norte 0 -- -- 47
2020-01-17 16:00:00 18.3 15 Norte 31 Norte 0 -- -- 47
2020-01-17 15:00:00 19.3 10 Oeste 32 Sudoeste 0 -- -- 47
2020-01-17 14:00:00 18.9 8 Sudoeste 30 Sudoeste 0 -- -- 51
2020-01-17 13:00:00 18.8 8 Oeste 32 Sudoeste 0 -- -- 54
2020-01-17 12:00:00 17.2 12 Oeste 34 Oeste 0 -- -- 70
2020-01-17 11:00:00 16.2 14 Sudoeste 35 Sudoeste 0 -- -- 74
2020-01-17 10:00:00 15 9 Sudoeste 28 Sudoeste 0 -- -- 83
2020-01-17 09:00:00 13.4 7 Sudoeste 33 Sudoeste 0 -- -- 91
2020-01-17 08:00:00 12.5 10 Sudoeste 30 Oeste 0 -- -- 91
2020-01-17 07:00:00 12.4 8 Sudoeste 27 Sur 0 -- -- 92
2020-01-17 06:00:00 12.4 21 Sur 28 Sur 0 -- -- 93
2020-01-17 05:00:00 11.8 6 Oeste 23 Sudoeste 0 -- -- 92
2020-01-17 04:00:00 12.1 6 Oeste 26 Sudoeste 0 -- -- 92
2020-01-17 03:00:00 12.1 4 Sudoeste 14 Sudoeste 0 -- -- 92
2020-01-17 02:00:00 11.9 5 Sudoeste 18 Oeste 0 -- -- 90
2020-01-17 01:00:00 12.3 4 Oeste 18 Sudeste 0 -- -- 89
2020-01-17 00:00:00 12.4 4 Sudoeste 18 Oeste 0 -- -- 89
2020-01-16 23:00:00 12.4 3 Sudoeste 15 Sudoeste 0 -- -- 90
2020-01-16 22:00:00 12.3 3 Sudoeste 11 Oeste 0 -- -- 89
2020-01-16 21:00:00 12.7 4 Sudoeste 14 Sudoeste 0 -- -- 86
2020-01-16 20:00:00 13.1 3 Oeste 13 Oeste 0 -- -- 85
2020-01-16 19:00:00 13.7 2 Sur 12 Sur 0 -- -- 86
2020-01-16 18:00:00 14.2 3 Sudoeste 17 Sur 0 -- -- 83
2020-01-16 17:00:00 15.4 14 Sur 17 Sur 0 -- -- 81
2020-01-16 16:00:00 16.8 13 Sur 15 Sur 0 -- -- 75
2020-01-16 15:00:00 16.4 10 Sudeste 15 Sur 0 -- -- 73
2020-01-16 14:00:00 16.3 12 Sur 16 Sur 0 -- -- 72
2020-01-16 13:00:00 17.5 10 Sur 14 Sur 0 -- -- 68
2020-01-16 12:00:00 16.2 11 Sur 18 Sudoeste 0 -- -- 71
2020-01-16 11:00:00 15.2 9 Sur 16 Sur 0 -- -- 74
2020-01-16 10:00:00 14.3 3 Sur 9 Sudoeste 0 -- -- 76
2020-01-16 09:00:00 13 0 Calma 6 Sudoeste 0 -- -- 85
2020-01-16 08:00:00 11.6 0 Calma 9 Sudoeste 0 -- -- 86
2020-01-16 07:00:00 11.5 4 Sudoeste 8 Sudoeste 0 -- -- 86
2020-01-16 06:00:00 11.4 0 Calma 9 Sudoeste 0 -- -- 84
2020-01-16 05:00:00 11.5 2 Sudoeste 5 Sudoeste 0 -- -- 83
2020-01-16 04:00:00 11.6 0 Calma 4 Sur 0 -- -- 83
2020-01-16 03:00:00 11.5 0 Calma 4 Sur 0 -- -- 80
2020-01-16 02:00:00 11.6 0 Calma 2 Noroeste 0 -- -- 79
2020-01-16 01:00:00 11.4 0 Calma 5 Norte 0 -- -- 77
2020-01-16 00:00:00 11.8 3 Norte 3 Norte 0 -- -- 77
2020-01-15 23:00:00 11.3 0 Calma 7 Noroeste 0 -- -- 77
2020-01-15 22:00:00 11.1 3 Oeste 9 Oeste 0 -- -- 78
2020-01-15 21:00:00 11.3 3 Sudoeste 11 Sudoeste 0 -- -- 76
2020-01-15 20:00:00 12 4 Oeste 13 Oeste 0 -- -- 74
2020-01-15 19:00:00 12.7 3 Oeste 14 Sudoeste 0 -- -- 71
2020-01-15 18:00:00 13.5 3 Oeste 13 Oeste 0 -- -- 66
2020-01-15 17:00:00 14.6 4 Sudoeste 13 Sudoeste 0 -- -- 62
2020-01-15 16:00:00 16 5 Sudoeste 17 Sudoeste 0 -- -- 57
2020-01-15 15:00:00 16.5 6 Sudoeste 22 Oeste 0 -- -- 61
2020-01-15 14:00:00 16.4 10 Sudoeste 34 Sur 0 -- -- 62
2020-01-15 13:00:00 15.4 18 Sudoeste 30 Sudoeste 0 -- -- 74
2020-01-15 12:00:00 15.9 6 Sudoeste 40 Sudoeste 0 -- -- 74
2020-01-15 11:00:00 14.6 6 Sudoeste 24 Sur 0 -- -- 75
2020-01-15 10:00:00 14.2 8 Sudoeste 34 Sur 0 -- -- 80
2020-01-15 09:00:00 13.5 10 Sudoeste 31 Sudoeste 0 -- -- 81
2020-01-15 08:00:00 12.8 4 Sudoeste 18 Sur 0 -- -- 78
2020-01-15 07:00:00 13.2 4 Sudoeste 23 Oeste 0 -- -- 76
2020-01-15 06:00:00 13.5 6 Sudoeste 27 Sudoeste 0 -- -- 74
2020-01-15 05:00:00 13.4 8 Sudoeste 26 Oeste 0 -- -- 72
2020-01-15 04:00:00 13.4 12 Sudoeste 24 Sudoeste 0 -- -- 74
2020-01-15 03:00:00 12.7 2 Oeste 22 Sur 0 -- -- 73
2020-01-15 02:00:00 13 6 Sudoeste 35 Sudoeste 0 -- -- 73
2020-01-15 01:00:00 13.3 13 Sudoeste 33 Sudoeste 0 -- -- 72
2020-01-15 00:00:00 12.9 11 Sudoeste 31 Sur 0 -- -- 73
2020-01-14 23:00:00 12.4 5 Sudoeste 16 Sudoeste 0 -- -- 72
2020-01-14 22:00:00 12.2 6 Sudoeste 21 Sudoeste 0 -- -- 69
2020-01-14 21:00:00 12.3 4 Sudoeste 31 Sur 0 -- -- 72
2020-01-14 20:00:00 13.5 17 Sur 28 Sur 0 -- -- 69
2020-01-14 19:00:00 12.9 7 Sudoeste 29 Sudoeste 0 -- -- 70
2020-01-14 18:00:00 13.2 12 Sudoeste 35 Sudoeste 0 -- -- 67
2020-01-14 17:00:00 13.8 17 Sudoeste 41 Sur 0 -- -- 68
2020-01-14 16:00:00 14.2 18 Sudoeste 42 Sur 0 -- -- 67
2020-01-14 15:00:00 14.1 26 Sudoeste 45 Sudoeste 0 -- -- 68
2020-01-14 14:00:00 14.6 28 Sudoeste 52 Sur 0 -- -- 66
2020-01-14 13:00:00 14.3 25 Sudoeste 47 Sudoeste 0 -- -- 66
2020-01-14 12:00:00 14.8 15 Sudoeste 44 Sudoeste 0 -- -- 64
2020-01-14 11:00:00 14.3 14 Sudoeste 43 Sur 0 -- -- 65
2020-01-14 10:00:00 14.2 9 Sudoeste 22 Sudoeste 0 -- -- 69
2020-01-14 09:00:00 12.2 4 Sudoeste 16 Sudoeste 0 -- -- 72
2020-01-14 08:00:00 11.7 0 Calma 12 Sur 0 -- -- 74
2020-01-14 07:00:00 11.5 2 Oeste 24 Sudoeste 0 -- -- 75
2020-01-14 06:00:00 11.6 5 Sudoeste 27 Sudoeste 0 -- -- 75
2020-01-14 05:00:00 11.3 4 Sudoeste 20 Sudoeste 0 -- -- 76
2020-01-14 04:00:00 11.2 3 Sudoeste 15 Sudoeste 0 -- -- 75
2020-01-14 03:00:00 11.3 5 Sudoeste 21 Sudoeste 0 -- -- 76
2020-01-14 02:00:00 11.1 4 Sudoeste 18 Sudoeste 0 -- -- 77
2020-01-14 01:00:00 11.4 5 Sudoeste 17 Oeste 0 -- -- 78
2020-01-14 00:00:00 11.2 3 Sudoeste 19 Sudoeste 0 -- -- 78
2020-01-13 23:00:00 11.2 5 Sudoeste 17 Sudoeste 0 -- -- 78
2020-01-13 22:00:00 11.3 3 Sudoeste 18 Sudoeste 0 -- -- 77
2020-01-13 21:00:00 11.2 0 Calma 13 Sudoeste 0 -- -- 77
2020-01-13 20:00:00 11.8 0 Calma 9 Sur 0 -- -- 74
2020-01-13 19:00:00 11.9 3 Sudoeste 14 Oeste 0 -- -- 73
2020-01-13 18:00:00 12.7 4 Sudoeste 14 Sudoeste 0 -- -- 71
2020-01-13 17:00:00 14.5 7 Norte 16 Norte 0 -- -- 68
2020-01-13 16:00:00 15.9 10 Norte 18 Norte 0 -- -- 64
2020-01-13 15:00:00 17.4 5 Noroeste 16 Noroeste 0 -- -- 53
2020-01-13 14:00:00 17 5 Sudoeste 19 Sur 0 -- -- 54
2020-01-13 13:00:00 17.3 4 Sudoeste 20 Oeste 0 -- -- 56
2020-01-13 12:00:00 16.8 3 Sudoeste 16 Sudoeste 0 -- -- 59
2020-01-13 11:00:00 15.9 4 Sudoeste 17 Sudoeste 0 -- -- 62
2020-01-13 10:00:00 14.4 3 Sudoeste 10 Sudoeste 0 -- -- 65
2020-01-13 09:00:00 13 0 Calma 4 Norte 0 -- -- 75
2020-01-13 08:00:00 9.6 3 Norte 16 Oeste 0 -- -- 82
2020-01-13 07:00:00 9.5 5 Sudoeste 15 Oeste 0 -- -- 82
2020-01-13 06:00:00 9.7 9 Oeste 14 Oeste 0 -- -- 79
2020-01-13 05:00:00 9.6 12 Oeste 17 Oeste 0 -- -- 80
2020-01-13 04:00:00 9.5 6 Sudoeste 12 Sur 0 -- -- 80
2020-01-13 03:00:00 9.9 5 Sudoeste 9 Sudoeste 0 -- -- 78
2020-01-13 02:00:00 10 3 Oeste 12 Noroeste 0 -- -- 81
2020-01-13 01:00:00 10 8 Oeste 15 Noroeste 0 -- -- 83
2020-01-13 00:00:00 11.1 11 Noroeste 26 Norte 0 -- -- 81
2020-01-12 23:00:00 11.6 17 Noroeste 27 Noroeste 0 -- -- 80
2020-01-12 22:00:00 11.6 20 Noroeste 31 Norte 0 -- -- 79
2020-01-12 21:00:00 11.7 22 Norte 32 Norte 0 -- -- 79
2020-01-12 20:00:00 11.7 19 Noroeste 28 Norte 0 -- -- 78
2020-01-12 19:00:00 11.9 21 Norte 32 Noroeste 0 -- -- 78
2020-01-12 18:00:00 11.9 27 Noroeste 38 Noroeste 0 -- -- 75
2020-01-12 17:00:00 12.5 31 Noroeste 37 Norte 0 -- -- 70
2020-01-12 16:00:00 12.9 30 Norte 39 Noroeste 0 -- -- 69
2020-01-12 15:00:00 13.7 31 Norte 41 Noroeste 0 -- -- 69
2020-01-12 14:00:00 13.6 35 Norte 44 Norte 0 -- -- 68
2020-01-12 13:00:00 14.1 32 Norte 42 Noroeste 0 -- -- 65
2020-01-12 12:00:00 14.2 32 Norte 43 Noroeste 0 -- -- 65
2020-01-12 11:00:00 13.3 33 Norte 40 Norte 0 -- -- 67
2020-01-12 10:00:00 13.6 29 Norte 39 Norte 0 -- -- 68
2020-01-12 09:00:00 12.4 28 Norte 40 Noroeste 0 -- -- 69
2020-01-12 08:00:00 11.8 28 Norte 37 Norte 0 -- -- 71
2020-01-12 07:00:00 11.8 31 Norte 39 Norte 0 -- -- 72
2020-01-12 06:00:00 11.9 32 Norte 41 Norte 0 -- -- 73
2020-01-12 05:00:00 12.1 31 Norte 41 Norte 0 -- -- 71
2020-01-12 04:00:00 12.2 33 Norte 45 Norte 0 -- -- 73
2020-01-12 03:00:00 12.1 35 Norte 42 Norte 0 -- -- 74
2020-01-12 02:00:00 12 29 Norte 39 Norte 0 -- -- 74
2020-01-12 01:00:00 11.9 32 Norte 42 Norte 0 -- -- 74
2020-01-12 00:00:00 11.8 33 Norte 45 Norte 0 -- -- 72
2020-01-11 23:00:00 11.9 36 Norte 45 Norte 0 -- -- 77
2020-01-11 22:00:00 12 35 Norte 47 Norte 0 -- -- 75
2020-01-11 21:00:00 12.1 37 Norte 53 Norte 0 -- -- 75
2020-01-11 20:00:00 12.1 39 Norte 46 Norte 0 -- -- 73
2020-01-11 19:00:00 12 37 Norte 51 Norte 0 -- -- 74
2020-01-11 18:00:00 11.7 40 Norte 51 Norte 0 -- -- 73
2020-01-11 17:00:00 11.9 43 Norte 53 Noroeste 0 -- -- 71
2020-01-11 16:00:00 12.1 43 Norte 55 Norte 0 -- -- 72
2020-01-11 15:00:00 12.7 45 Norte 58 Norte 0 -- -- 70
2020-01-11 14:00:00 13.1 44 Norte 55 Norte 0 -- -- 68
2020-01-11 13:00:00 13 44 Norte 55 Norte 0 -- -- 68
2020-01-11 12:00:00 12.2 45 Norte 53 Norte 0 -- -- 72
2020-01-11 11:00:00 12.3 42 Norte 55 Norte 0 -- -- 72
2020-01-11 10:00:00 12.2 43 Norte 59 Nordeste 0 -- -- 71
2020-01-11 09:00:00 12 43 Norte 57 Norte 0 -- -- 75
2020-01-11 08:00:00 12.2 48 Norte 57 Norte 0 -- -- 76
2020-01-11 07:00:00 12.4 44 Norte 53 Norte 0 -- -- 77
2020-01-11 06:00:00 12.4 42 Norte 61 Nordeste 0 -- -- 77
2020-01-11 05:00:00 12.5 47 Norte 66 Nordeste 0 -- -- 77
2020-01-11 04:00:00 12.6 49 Norte 64 Nordeste 0 -- -- 78
2020-01-11 03:00:00 13 48 Norte 66 Nordeste 0 -- -- 80
2020-01-11 02:00:00 12.9 46 Norte 60 Norte 0 -- -- 78
2020-01-11 01:00:00 12.9 48 Norte 63 Norte 0 -- -- 78
2020-01-11 00:00:00 12.9 53 Norte 65 Norte 0 -- -- 77
2020-01-10 23:00:00 13.1 51 Norte 66 Norte 0 -- -- 77
2020-01-10 22:00:00 13.4 47 Norte 65 Nordeste 0.1 -- -- 78
2020-01-10 21:00:00 13.2 46 Nordeste 62 Nordeste 0.1 -- -- 78
2020-01-10 20:00:00 13.3 50 Nordeste 66 Nordeste 0 -- -- 77
2020-01-10 19:00:00 13.2 52 Norte 67 Nordeste 0.1 -- -- 75
2020-01-10 18:00:00 13 55 Nordeste 65 Nordeste 0 -- -- 80
2020-01-10 17:00:00 12.6 51 Nordeste 65 Nordeste 0 -- -- 86
2020-01-10 16:00:00 12.6 48 Nordeste 64 Nordeste 0 -- -- 86
2020-01-10 15:00:00 12.6 43 Nordeste 51 Nordeste 0 -- -- 85
2020-01-10 14:00:00 13 41 Nordeste 49 Nordeste 0 -- -- 80
2020-01-10 13:00:00 12.9 38 Nordeste 53 Nordeste 0 -- -- 85
2020-01-10 12:00:00 13.1 44 Nordeste 53 Nordeste 0 -- -- 85
2020-01-10 11:00:00 13.4 19 Norte 24 Norte 0 -- -- 81
2020-01-10 10:00:00 12.8 16 Norte 20 Norte 0 -- -- 87
2020-01-10 09:00:00 12.1 10 Noroeste 14 Noroeste 0 -- -- 84
2020-01-10 08:00:00 12.3 6 Norte 10 Noroeste 0 -- -- 81
2020-01-10 07:00:00 12.1 0 Calma 8 Noroeste 0 -- -- 81
2020-01-10 06:00:00 12.3 4 Noroeste 8 Noroeste 0 -- -- 83
2020-01-10 05:00:00 12 7 Noroeste 8 Noroeste 0 -- -- 85
2020-01-10 04:00:00 11.8 3 Sudoeste 12 Norte 0 -- -- 86
2020-01-10 03:00:00 11.8 8 Noroeste 16 Noroeste 0 -- -- 86
2020-01-10 02:00:00 11.7 7 Oeste 14 Oeste 0 -- -- 86
2020-01-10 01:00:00 11.9 3 Sudoeste 12 Sur 0 -- -- 85
2020-01-10 00:00:00 12.3 2 Sudoeste 14 Oeste 0 -- -- 83
2020-01-09 23:00:00 12.5 3 Oeste 11 Oeste 0 -- -- 81
2020-01-09 22:00:00 12.4 0 Calma 10 Sur 0 -- -- 80
2020-01-09 21:00:00 12.6 6 Sudoeste 12 Sur 0 -- -- 80
2020-01-09 20:00:00 12.8 3 Sudoeste 13 Sur 0 -- -- 77
2020-01-09 19:00:00 13.1 5 Sudoeste 17 Sur 0 -- -- 75
2020-01-09 18:00:00 13.9 13 Sur 22 Sudeste 0 -- -- 73
2020-01-09 17:00:00 14.8 18 Sur 22 Sudeste 0 -- -- 71
2020-01-09 16:00:00 16.3 16 Sur 19 Sur 0 -- -- 67
2020-01-09 15:00:00 17 14 Sur 20 Sur 0 -- -- 65
2020-01-09 14:00:00 17.6 18 Sur 22 Sur 0 -- -- 65
2020-01-09 13:00:00 17.6 17 Sudeste 22 Sudeste 0 -- -- 65
2020-01-09 12:00:00 15.3 10 Sudeste 15 Sudeste 0 -- -- 74
2020-01-09 11:00:00 15.9 9 Nordeste 18 Nordeste 0 -- -- 75
2020-01-09 10:00:00 15.1 13 Nordeste 20 Nordeste 0 -- -- 76
2020-01-09 09:00:00 13.9 14 Nordeste 18 Nordeste 0 -- -- 78
2020-01-09 08:00:00 12.6 13 Nordeste 19 Nordeste 0 -- -- 82
2020-01-09 07:00:00 12.6 14 Nordeste 20 Nordeste 0 -- -- 79
2020-01-09 06:00:00 12.6 13 Norte 22 Norte 0 -- -- 77
2020-01-09 05:00:00 12.5 11 Norte 17 Norte 0 -- -- 77
2020-01-09 04:00:00 12.5 13 Nordeste 21 Norte 0 -- -- 77
2020-01-09 03:00:00 12.8 13 Norte 20 Norte 0 -- -- 78
2020-01-09 02:00:00 12.6 14 Nordeste 21 Norte 0 -- -- 78
2020-01-09 01:00:00 12.6 16 Nordeste 22 Nordeste 0 -- -- 79
2020-01-09 00:00:00 12.7 15 Nordeste 21 Nordeste 0 -- -- 80
2020-01-08 23:00:00 12.7 16 Nordeste 25 Norte 0 -- -- 80
2020-01-08 22:00:00 12.9 20 Nordeste 26 Norte 0 -- -- 79
2020-01-08 21:00:00 13 19 Nordeste 26 Nordeste 0 -- -- 78
2020-01-08 20:00:00 13.1 18 Nordeste 25 Norte 0 -- -- 77
2020-01-08 19:00:00 13 19 Nordeste 36 Norte 0 -- -- 73
2020-01-08 18:00:00 13.2 27 Norte 40 Norte 0 -- -- 75
2020-01-08 17:00:00 13.4 32 Norte 40 Norte 0 -- -- 77
2020-01-08 16:00:00 13.8 26 Norte 33 Norte 0 -- -- 74
2020-01-08 15:00:00 15.3 29 Norte 37 Norte 0 -- -- 71
2020-01-08 14:00:00 16.3 29 Norte 39 Norte 0 -- -- 69
2020-01-08 13:00:00 15.7 35 Norte 40 Norte 0 -- -- 73
2020-01-08 12:00:00 16.3 29 Norte 36 Norte 0 -- -- 73
2020-01-08 11:00:00 15.2 31 Norte 44 Norte 0 -- -- 73
2020-01-08 10:00:00 14.1 35 Norte 54 Norte 0 -- -- 77
2020-01-08 09:00:00 13.5 37 Norte 48 Norte 0 -- -- 80
2020-01-08 08:00:00 12.8 37 Norte 47 Norte 0 -- -- 86
2020-01-08 07:00:00 12.7 37 Norte 46 Norte 0 -- -- 87
2020-01-08 06:00:00 12.9 32 Norte 45 Norte 0 -- -- 86
2020-01-08 05:00:00 12.8 19 Noroeste 35 Noroeste 0 -- -- 81
2020-01-08 04:00:00 12.8 17 Norte 23 Norte 0 -- -- 79
2020-01-08 03:00:00 12.1 8 Noroeste 12 Noroeste 0 -- -- 84
2020-01-08 02:00:00 12 5 Oeste 10 Sur 0 -- -- 88
2020-01-08 01:00:00 12.3 5 Sur 10 Sur 0 -- -- 88
2020-01-08 00:00:00 11.8 8 Sur 11 Sur 0 -- -- 89
2020-01-07 23:00:00 11.9 5 Sur 8 Sudoeste 0 -- -- 88
2020-01-07 22:00:00 12.2 5 Norte 12 Oeste 0 -- -- 86
2020-01-07 21:00:00 11.8 7 Oeste 14 Oeste 0 -- -- 86
2020-01-07 20:00:00 12.1 6 Sudoeste 14 Oeste 0 -- -- 85
2020-01-07 19:00:00 12.2 9 Oeste 16 Oeste 0 -- -- 84
2020-01-07 18:00:00 13.1 10 Norte 24 Norte 0 -- -- 81
2020-01-07 17:00:00 13.9 19 Norte 30 Norte 0 -- -- 77
2020-01-07 16:00:00 14.9 22 Norte 28 Norte 0 -- -- 74
2020-01-07 15:00:00 15.4 21 Norte 29 Norte 0 -- -- 71
2020-01-07 14:00:00 15.8 21 Norte 28 Norte 0 -- -- 71
2020-01-07 13:00:00 16 16 Norte 24 Norte 0 -- -- 70
2020-01-07 12:00:00 16.6 14 Norte 22 Norte 0 -- -- 68
2020-01-07 11:00:00 16.2 16 Norte 20 Norte 0 -- -- 71
2020-01-07 10:00:00 15 15 Norte 21 Norte 0 -- -- 76
2020-01-07 09:00:00 13.6 12 Norte 16 Norte 0 -- -- 84
2020-01-07 08:00:00 11.9 11 Norte 18 Norte 0 -- -- 90
2020-01-07 07:00:00 11.9 9 Noroeste 11 Noroeste 0 -- -- 86
2020-01-07 06:00:00 12.5 2 Nordeste 12 Norte 0 -- -- 86
2020-01-07 05:00:00 12.3 6 Norte 11 Nordeste 0 -- -- 86
2020-01-07 04:00:00 12.4 4 Norte 9 Norte 0 -- -- 86
2020-01-07 03:00:00 12.5 4 Norte 7 Nordeste 0 -- -- 84
2020-01-07 02:00:00 12.7 4 Nordeste 6 Este 0 -- -- 83
2020-01-07 01:00:00 12.8 0 Calma 9 Este 0 -- -- 82
2020-01-07 00:00:00 12.8 7 Sudeste 9 Este 0 -- -- 81
2020-01-06 23:00:00 13.3 0 Calma 3 Norte 0 -- -- 78
2020-01-06 22:00:00 13.3 0 Calma 3 Noroeste 0 -- -- 77
2020-01-06 21:00:00 13.2 0 Calma 3 Oeste 0 -- -- 77
2020-01-06 20:00:00 13.2 0 Calma 9 Oeste 0 -- -- 77
2020-01-06 19:00:00 12.9 7 Oeste 13 Noroeste 0 -- -- 77
2020-01-06 18:00:00 13.1 5 Oeste 11 Oeste 0 -- -- 77
2020-01-06 17:00:00 13.1 6 Oeste 11 Oeste 0 -- -- 77
2020-01-06 16:00:00 13.2 8 Oeste 10 Oeste 0 -- -- 76
2020-01-06 15:00:00 13.4 5 Oeste 12 Oeste 0 -- -- 76
2020-01-06 14:00:00 13.6 2 Oeste 9 Oeste 0 -- -- 77
2020-01-06 13:00:00 13.3 3 Noroeste 8 Noroeste 0 -- -- 77
2020-01-06 12:00:00 13.2 0 Calma 7 Oeste 0 -- -- 78
2020-01-06 11:00:00 12.9 0 Calma 10 Oeste 0 -- -- 79
2020-01-06 10:00:00 12.5 6 Oeste 15 Oeste 0 -- -- 80